KRBD/RBD METAR and TAF weather

Enter ICAO airport designator
Station Type Date Time Source
KRBD METAR 2020/06/05 23:53 UTC NOAA

KRBD 052353Z 16008KT 10SM 33/21 A2989 RMK AO2 SLP111 T03330206 10350 20322 56008 $


Station Type Date Time Source
KRBD Decoded METAR 2020/06/05 23:53 UTC NOAA

DALLAS EXECUTIVE AIRPORT, TX, United States (KRBD) 32-41N 096-52W 203M
Jun 05, 2020 - 07:53 PM EDT / 2020.06.05 2353 UTC
Wind: from the SSE (160 degrees) at 9 MPH (8 KT):0
Visibility: 10 mile(s):0
Temperature: 91.9 F (33.3 C)
Heat index: 96.8 F (36.0 C):1
Dew Point: 69.1 F (20.6 C)
Relative Humidity: 47%
Pressure (altimeter): 29.89 in. Hg (1012 hPa)
Pressure tendency: 0.02 inches (0.8 hPa) lower than three hours ago
ob: KRBD 052353Z 16008KT 10SM 33/21 A2989 RMK AO2 SLP111 T03330206 10350 20322 56008
cycle: 0

Station Type Date Time Source
KRBD TAF UTC NOAA

Error!

Example: see airport list